createdAt,value
2018-10-07T00:02:07.511Z,93.98
2018-10-07T00:04:39.570Z,93.81
2018-10-07T00:07:18.425Z,93.40
2018-10-07T00:10:02.206Z,94.57
2018-10-07T00:31:49.943Z,94.18
2018-10-07T00:34:27.887Z,94.66
2018-10-07T00:37:30.023Z,95.13
2018-10-07T00:40:11.833Z,95.33
2018-10-07T00:42:56.274Z,95.04
2018-10-07T00:45:35.312Z,95.21
2018-10-07T00:49:15.113Z,94.91
2018-10-07T00:52:26.362Z,95.33
2018-10-07T00:55:07.613Z,95.05
2018-10-07T01:01:19.623Z,95.77
2018-10-07T01:03:59.509Z,95.52
2018-10-07T01:12:49.311Z,95.44
2018-10-07T01:15:46.961Z,95.78
2018-10-07T01:21:18.507Z,95.39
2018-10-07T01:27:41.715Z,97.02
2018-10-07T01:33:54.353Z,96.88
2018-10-07T01:36:36.868Z,97.37
2018-10-07T01:39:31.799Z,96.80
2018-10-07T01:42:10.540Z,96.33
2018-10-07T01:50:27.674Z,95.49
2018-10-07T02:12:59.089Z,95.60
2018-10-07T02:26:33.468Z,96.46
2018-10-07T02:29:18.219Z,96.12
2018-10-07T02:31:54.187Z,96.27
2018-10-07T02:34:33.923Z,96.43
2018-10-07T02:37:07.868Z,95.53
2018-10-07T02:39:48.994Z,95.03
2018-10-07T02:42:23.323Z,95.24
2018-10-07T02:45:02.774Z,95.07
2018-10-07T02:47:44.571Z,95.24
2018-10-07T02:53:07.708Z,95.73
2018-10-07T02:55:40.824Z,95.47
2018-10-07T02:58:30.873Z,95.37
2018-10-07T03:01:29.309Z,96.19
2018-10-07T03:19:08.216Z,94.64
2018-10-07T03:25:41.871Z,94.47
2018-10-07T03:28:35.831Z,94.44
2018-10-07T03:31:16.860Z,92.50
2018-10-07T03:33:55.609Z,93.09
2018-10-07T03:55:08.280Z,92.53
2018-10-07T03:58:07.412Z,91.78
2018-10-07T04:14:16.242Z,91.21
2018-10-07T04:22:49.692Z,91.77
2018-10-07T04:28:15.049Z,91.58
2018-10-07T04:30:51.483Z,91.78
2018-10-07T04:34:11.046Z,91.51
2018-10-07T04:36:49.101Z,92.19
2018-10-07T04:39:33.418Z,92.10
2018-10-07T04:47:28.258Z,93.31
2018-10-07T04:50:07.476Z,92.98
2018-10-07T04:52:56.433Z,92.71
2018-10-07T04:55:34.441Z,94.04
2018-10-07T04:58:11.557Z,93.56
2018-10-07T05:03:51.401Z,93.69
2018-10-07T05:06:52.955Z,93.16
2018-10-07T05:12:22.155Z,93.24
2018-10-07T05:18:08.687Z,93.04
2018-10-07T05:20:58.528Z,93.55
2018-10-07T05:34:51.817Z,93.53
2018-10-07T05:40:25.315Z,93.76
2018-10-07T05:43:02.570Z,94.22
2018-10-07T05:48:41.052Z,93.11
2018-10-07T05:57:10.186Z,92.84
2018-10-07T06:02:32.853Z,92.43
2018-10-07T06:05:35.610Z,92.11
2018-10-07T06:13:41.876Z,92.64
2018-10-07T06:16:28.249Z,92.98
2018-10-07T06:19:07.892Z,93.00
2018-10-07T06:21:53.572Z,91.78
2018-10-07T06:27:18.973Z,92.39
2018-10-07T06:30:03.154Z,92.77
2018-10-07T06:35:37.818Z,92.40
2018-10-07T06:38:19.593Z,92.35
2018-10-07T06:44:29.213Z,92.96
2018-10-07T07:06:32.192Z,83.64
2018-10-07T07:19:59.618Z,78.72
2018-10-07T07:23:30.524Z,80.54
2018-10-07T07:26:09.483Z,79.27
2018-10-07T07:28:51.519Z,79.75
2018-10-07T07:31:34.373Z,80.27
2018-10-07T07:34:14.597Z,79.75
2018-10-07T07:36:48.765Z,79.38
2018-10-07T07:39:32.765Z,79.31
2018-10-07T07:42:26.856Z,79.64
2018-10-07T07:45:05.334Z,79.17
2018-10-07T07:47:40.369Z,80.07
2018-10-07T07:56:18.858Z,79.75
2018-10-07T08:20:01.059Z,75.96
2018-10-07T08:26:31.596Z,76.83
2018-10-07T08:29:06.758Z,76.44
2018-10-07T08:51:43.889Z,77.06
2018-10-07T08:54:26.136Z,76.51
2018-10-07T08:57:06.132Z,76.65
2018-10-07T08:59:40.362Z,76.06
2018-10-07T09:02:30.532Z,75.54
2018-10-07T09:05:19.221Z,74.68
2018-10-07T09:24:50.578Z,73.32
2018-10-07T09:30:57.155Z,72.91
2018-10-07T09:33:47.698Z,71.41
2018-10-07T09:36:32.786Z,71.44
2018-10-07T09:39:29.117Z,72.64
2018-10-07T09:42:09.412Z,71.71
2018-10-07T09:44:49.416Z,70.77
2018-10-07T09:50:18.179Z,71.71
2018-10-07T10:01:48.490Z,71.17
2018-10-07T10:56:14.422Z,65.35
2018-10-07T11:00:57.412Z,64.26
2018-10-07T11:03:45.856Z,61.50
2018-10-07T11:06:30.234Z,59.17
2018-10-07T11:09:24.748Z,59.11
2018-10-07T11:12:03.582Z,61.29
2018-10-07T11:14:56.611Z,60.59
2018-10-07T11:17:37.445Z,60.66
2018-10-07T11:21:21.448Z,61.39
2018-10-07T11:24:02.733Z,60.90
2018-10-07T11:29:18.712Z,60.70
2018-10-07T11:32:33.112Z,60.50
2018-10-07T11:35:38.830Z,60.67
2018-10-07T11:38:36.270Z,59.77
2018-10-07T11:43:44.008Z,61.53
2018-10-07T11:48:28.950Z,60.38
2018-10-07T11:51:09.366Z,60.74
2018-10-07T11:53:48.888Z,60.00
2018-10-07T11:58:58.916Z,60.60
2018-10-07T12:01:30.229Z,59.67
2018-10-07T12:04:01.460Z,61.07
2018-10-07T12:06:32.758Z,60.56
2018-10-07T12:11:47.558Z,59.34
2018-10-07T12:14:19.464Z,59.87
2018-10-07T12:16:51.550Z,58.42
2018-10-07T12:19:22.337Z,59.71
2018-10-07T12:21:53.735Z,60.36
2018-10-07T12:24:25.213Z,60.11
2018-10-07T12:26:56.337Z,61.24
2018-10-07T12:29:28.008Z,59.93
2018-10-07T12:31:59.016Z,60.11
2018-10-07T12:34:29.749Z,61.34
2018-10-07T12:37:00.324Z,61.15
2018-10-07T12:39:32.577Z,60.48
2018-10-07T12:42:03.192Z,60.24
2018-10-07T12:44:33.804Z,60.42
2018-10-07T12:47:04.663Z,59.85
2018-10-07T12:49:35.897Z,60.77
2018-10-07T12:52:06.779Z,60.99
2018-10-07T12:54:38.904Z,62.39
2018-10-07T12:57:18.592Z,60.50
2018-10-07T12:59:49.269Z,60.77
2018-10-07T13:02:20.760Z,61.83
2018-10-07T13:04:51.361Z,60.62
2018-10-07T13:10:02.115Z,60.60
2018-10-07T13:12:32.066Z,60.41
2018-10-07T13:15:02.520Z,59.64
2018-10-07T13:17:33.847Z,60.47
2018-10-07T13:20:05.991Z,60.67
2018-10-07T13:22:36.675Z,60.48
2018-10-07T13:25:06.947Z,61.31
2018-10-07T13:27:47.255Z,60.21
2018-10-07T13:30:18.573Z,61.34
2018-10-07T13:32:48.992Z,60.58
2018-10-07T13:35:21.095Z,59.71
2018-10-07T13:37:51.395Z,60.88
2018-10-07T13:40:23.139Z,61.02
2018-10-07T13:45:35.950Z,60.97
2018-10-07T13:48:07.300Z,59.51
2018-10-07T13:50:38.147Z,58.22
2018-10-07T13:55:59.559Z,58.19
2018-10-07T13:58:30.777Z,59.49
2018-10-07T14:01:02.284Z,58.67
2018-10-07T14:03:40.118Z,59.49
2018-10-07T14:06:13.482Z,60.15
2018-10-07T14:08:52.395Z,60.86
2018-10-07T14:11:24.785Z,59.36
2018-10-07T14:13:56.444Z,60.78
2018-10-07T14:16:26.658Z,58.70
2018-10-07T14:18:58.207Z,59.73
2018-10-07T14:21:28.309Z,59.82
2018-10-07T14:23:58.577Z,59.72
2018-10-07T14:26:29.947Z,59.73
2018-10-07T14:29:00.239Z,60.17
2018-10-07T14:31:30.902Z,59.75
2018-10-07T14:34:03.445Z,60.11
2018-10-07T14:36:33.937Z,59.67
2018-10-07T14:39:05.623Z,61.01
2018-10-07T14:41:36.831Z,60.10
2018-10-07T14:44:07.883Z,60.94
2018-10-07T14:46:38.766Z,60.74
2018-10-07T14:49:10.388Z,61.34
2018-10-07T14:54:24.096Z,62.31
2018-10-07T14:57:00.447Z,61.20
2018-10-07T14:59:36.039Z,61.13
2018-10-07T15:02:19.268Z,61.25
2018-10-07T15:04:53.838Z,61.08
2018-10-07T15:07:25.340Z,61.71
2018-10-07T15:09:56.171Z,61.79
2018-10-07T15:12:29.688Z,62.06
2018-10-07T15:15:03.027Z,62.31
2018-10-07T15:17:34.835Z,61.70
2018-10-07T15:20:06.702Z,62.13
2018-10-07T15:22:41.124Z,62.34
2018-10-07T15:25:12.153Z,61.97
2018-10-07T15:27:48.255Z,62.15
2018-10-07T15:30:27.132Z,62.79
2018-10-07T15:33:00.163Z,61.64
2018-10-07T15:35:31.227Z,62.39
2018-10-07T15:38:02.750Z,61.28
2018-10-07T15:40:34.796Z,61.62
2018-10-07T15:43:08.909Z,61.52
2018-10-07T15:45:41.390Z,61.91
2018-10-07T15:48:15.229Z,62.63
2018-10-07T15:50:45.399Z,63.12
2018-10-07T15:53:17.648Z,63.17
2018-10-07T15:55:49.832Z,62.84
2018-10-07T15:58:24.124Z,63.03
2018-10-07T16:00:57.091Z,63.81
2018-10-07T16:03:29.307Z,63.56
2018-10-07T16:06:01.578Z,64.00
2018-10-07T16:08:33.129Z,64.68
2018-10-07T16:11:06.848Z,64.56
2018-10-07T16:13:43.114Z,63.84
2018-10-07T16:16:17.013Z,65.11
2018-10-07T16:18:49.503Z,65.46
2018-10-07T16:21:22.335Z,65.40
2018-10-07T16:23:54.403Z,65.20
2018-10-07T16:26:29.417Z,65.04
2018-10-07T16:29:04.362Z,65.40
2018-10-07T16:34:20.168Z,65.93
2018-10-07T16:36:54.365Z,66.73
2018-10-07T16:39:28.634Z,66.36
2018-10-07T16:42:02.355Z,66.79
2018-10-07T16:44:40.066Z,66.60
2018-10-07T16:47:13.346Z,67.77
2018-10-07T16:49:45.830Z,67.25
2018-10-07T16:52:20.609Z,67.61
2018-10-07T16:54:52.383Z,67.98
2018-10-07T16:57:24.150Z,68.73
2018-10-07T16:59:56.188Z,69.07
2018-10-07T17:02:27.843Z,68.62
2018-10-07T17:04:58.607Z,69.11
2018-10-07T17:07:30.185Z,68.30
2018-10-07T17:10:08.298Z,69.03
2018-10-07T17:12:44.119Z,68.55
2018-10-07T17:18:19.917Z,70.33
2018-10-07T17:21:04.261Z,70.09
2018-10-07T17:23:52.920Z,70.45
2018-10-07T17:26:31.830Z,71.36
2018-10-07T17:29:08.747Z,72.17
2018-10-07T17:31:58.545Z,71.42
2018-10-07T17:34:42.735Z,71.54
2018-10-07T17:37:16.965Z,71.50
2018-10-07T17:40:01.240Z,71.40
2018-10-07T17:42:34.336Z,72.32
2018-10-07T17:45:08.871Z,72.25
2018-10-07T17:47:50.824Z,71.89
2018-10-07T17:50:25.995Z,71.85
2018-10-07T17:53:01.946Z,72.74
2018-10-07T17:55:54.904Z,73.03
2018-10-07T17:58:32.898Z,73.17
2018-10-07T18:01:14.615Z,72.25
2018-10-07T18:03:54.396Z,72.52
2018-10-07T18:06:26.321Z,72.65
2018-10-07T18:09:02.359Z,73.39
2018-10-07T18:11:43.664Z,72.93
2018-10-07T18:14:26.462Z,73.44
2018-10-07T18:17:46.757Z,74.15
2018-10-07T18:20:22.087Z,75.29
2018-10-07T18:23:01.745Z,75.48
2018-10-07T18:25:38.402Z,76.96
2018-10-07T18:28:27.560Z,77.88
2018-10-07T18:31:08.597Z,77.20
2018-10-07T18:33:50.600Z,78.75
2018-10-07T18:36:31.839Z,77.93
2018-10-07T18:39:14.730Z,78.03
2018-10-07T18:41:59.193Z,78.45
2018-10-07T18:44:41.257Z,78.75
2018-10-07T18:47:25.097Z,78.39
2018-10-07T18:50:15.850Z,78.85
2018-10-07T18:52:54.259Z,77.56
2018-10-07T18:55:32.061Z,78.69
2018-10-07T18:58:07.169Z,78.69
2018-10-07T19:00:39.904Z,77.80
2018-10-07T19:06:10.191Z,77.94
2018-10-07T19:08:42.483Z,79.01
2018-10-07T19:11:24.787Z,79.07
2018-10-07T19:17:08.223Z,78.53
2018-10-07T19:19:42.747Z,78.63
2018-10-07T19:22:18.971Z,78.54
2018-10-07T19:24:53.257Z,78.29
2018-10-07T19:27:26.596Z,77.72
2018-10-07T19:29:59.531Z,79.07
2018-10-07T19:32:31.834Z,78.39
2018-10-07T19:35:04.577Z,78.99
2018-10-07T19:37:40.140Z,78.90
2018-10-07T19:40:14.656Z,79.41
2018-10-07T19:42:54.896Z,78.08
2018-10-07T19:45:28.873Z,78.76
2018-10-07T19:48:08.073Z,79.02
2018-10-07T19:50:47.600Z,78.47
2018-10-07T19:53:21.966Z,78.57
2018-10-07T19:55:56.952Z,78.57
2018-10-07T19:58:31.694Z,77.77
2018-10-07T20:03:47.652Z,78.58
2018-10-07T20:06:26.350Z,78.80
2018-10-07T20:08:59.791Z,79.00
2018-10-07T20:11:34.471Z,79.65
2018-10-07T20:14:12.280Z,79.87
2018-10-07T20:16:45.305Z,79.81
2018-10-07T20:19:18.184Z,79.63
2018-10-07T20:21:52.071Z,80.42
2018-10-07T20:24:26.301Z,80.22
2018-10-07T20:27:00.102Z,80.50
2018-10-07T20:29:34.511Z,80.20
2018-10-07T20:32:08.011Z,79.22
2018-10-07T20:34:45.808Z,79.25
2018-10-07T20:37:18.411Z,80.37
2018-10-07T20:39:53.612Z,80.33
2018-10-07T20:42:28.988Z,80.01
2018-10-07T20:45:03.140Z,80.00
2018-10-07T20:47:36.758Z,81.25
2018-10-07T20:50:25.330Z,80.54
2018-10-07T20:53:00.438Z,79.51
2018-10-07T20:55:49.062Z,78.86
2018-10-07T20:58:23.900Z,80.06
2018-10-07T21:00:57.482Z,79.37
2018-10-07T21:03:30.629Z,79.58
2018-10-07T21:06:02.619Z,78.74
2018-10-07T21:08:35.061Z,79.19
2018-10-07T21:11:11.185Z,78.65
2018-10-07T21:13:48.977Z,77.55
2018-10-07T21:16:23.687Z,78.46
2018-10-07T21:18:57.172Z,78.84
2018-10-07T21:21:36.556Z,78.95
2018-10-07T21:24:08.493Z,77.88
2018-10-07T21:26:40.750Z,78.23
2018-10-07T21:29:14.541Z,79.01
2018-10-07T21:31:52.072Z,77.65
2018-10-07T21:34:34.051Z,78.21
2018-10-07T21:37:12.684Z,79.04
2018-10-07T21:39:54.390Z,79.46
2018-10-07T21:42:27.388Z,80.22
2018-10-07T21:45:04.894Z,80.20
2018-10-07T21:47:37.412Z,80.29
2018-10-07T21:50:10.243Z,79.89
2018-10-07T21:52:42.644Z,80.10
2018-10-07T21:55:15.150Z,80.65
2018-10-07T21:57:46.780Z,80.91
2018-10-07T22:00:18.814Z,80.88
2018-10-07T22:02:50.159Z,80.92
2018-10-07T22:05:21.697Z,81.57
2018-10-07T22:07:53.203Z,81.69
2018-10-07T22:10:24.920Z,82.62
2018-10-07T22:12:56.783Z,83.09
2018-10-07T22:15:27.990Z,81.78
2018-10-07T22:17:58.903Z,80.80
2018-10-07T22:20:31.547Z,81.00
2018-10-07T22:25:48.299Z,80.06
2018-10-07T22:28:20.537Z,80.00
2018-10-07T22:30:52.864Z,79.28
2018-10-07T22:33:24.820Z,79.27
2018-10-07T22:35:58.672Z,79.94
2018-10-07T22:38:31.832Z,79.78
2018-10-07T22:41:03.275Z,79.48
2018-10-07T22:43:40.265Z,80.50
2018-10-07T22:46:18.360Z,80.04
2018-10-07T22:49:37.027Z,80.12
2018-10-07T22:52:09.183Z,79.40
2018-10-07T22:54:41.251Z,79.59
2018-10-07T22:57:13.536Z,80.78
2018-10-07T22:59:45.225Z,80.15
2018-10-07T23:02:17.979Z,79.58
2018-10-07T23:04:49.800Z,79.55
2018-10-07T23:07:22.418Z,79.75
2018-10-07T23:09:55.458Z,80.30
2018-10-07T23:12:27.318Z,80.22
2018-10-07T23:14:58.205Z,80.53
2018-10-07T23:17:29.266Z,80.39
2018-10-07T23:20:01.173Z,81.11
2018-10-07T23:22:33.371Z,80.39
2018-10-07T23:25:04.226Z,80.03
2018-10-07T23:27:35.455Z,79.97
2018-10-07T23:30:08.778Z,80.58
2018-10-07T23:32:39.492Z,80.28
2018-10-07T23:35:10.511Z,80.64
2018-10-07T23:37:41.535Z,80.88
2018-10-07T23:40:12.998Z,80.88
2018-10-07T23:42:44.059Z,81.63
2018-10-07T23:45:14.076Z,81.29
2018-10-07T23:47:46.141Z,80.96
2018-10-07T23:50:16.361Z,81.17
2018-10-07T23:52:48.334Z,81.35
2018-10-07T23:55:22.880Z,79.82
2018-10-07T23:57:54.048Z,80.09
